Time;durP1;ratioP1;P1;durP2;ratioP2;P2;SDS_P1;SDS_P2;PMS_P1;PMS_P2;Temp;Humidity;BMP_temperature;BMP_pressure;BME280_temperature;BME280_humidity;BME280_pressure;Samples;Min_cycle;Max_cycle;Signal;HPM_P1;HPM_P2
2022/12/13 00:00:25;;;;;;;33.40;17.98;;;-3.60;99.90;;;;;;5009903;28;20030;-57
2022/12/13 00:03:11;;;;;;;36.30;19.02;;;-3.80;99.90;;;;;;5010300;28;20037;-57
2022/12/13 00:05:57;;;;;;;33.65;17.60;;;-4.00;99.90;;;;;;5010255;28;20029;-57
2022/12/13 00:08:43;;;;;;;36.05;18.95;;;-4.00;99.90;;;;;;5010255;28;20030;-57
2022/12/13 00:11:29;;;;;;;32.55;17.92;;;-4.10;99.90;;;;;;5008568;28;20708;-64
2022/12/13 00:14:15;;;;;;;36.45;17.75;;;-4.10;99.90;;;;;;5010331;28;20026;-63
2022/12/13 00:17:01;;;;;;;38.85;19.13;;;-4.10;99.90;;;;;;5010071;28;20071;-62
2022/12/13 00:19:47;;;;;;;40.15;19.13;;;-4.10;99.90;;;;;;5009930;28;20108;-60
2022/12/13 00:22:33;;;;;;;33.50;17.98;;;-4.20;99.90;;;;;;5010208;28;20034;-62
2022/12/13 00:25:20;;;;;;;33.22;17.27;;;-4.20;99.90;;;;;;5010742;28;20026;-63
2022/12/13 00:28:06;;;;;;;33.95;18.48;;;-4.20;99.90;;;;;;4996328;28;20514;-61
2022/12/13 00:30:56;;;;;;;33.65;18.20;;;-4.30;99.90;;;;;;5009777;28;20034;-60
2022/12/13 00:33:43;;;;;;;32.13;17.42;;;-4.40;99.90;;;;;;5010343;28;20088;-57
2022/12/13 00:36:29;;;;;;;40.83;21.02;;;-4.30;99.90;;;;;;5010439;28;20589;-61
2022/12/13 00:39:15;;;;;;;39.92;19.30;;;-4.30;99.90;;;;;;5009631;28;20569;-59
2022/12/13 00:42:01;;;;;;;32.80;17.08;;;-4.20;99.90;;;;;;4987026;28;20414;-62
2022/12/13 00:44:47;;;;;;;37.40;17.75;;;-4.20;99.90;;;;;;5014367;28;20514;-63
2022/12/13 00:47:33;;;;;;;35.28;18.05;;;-4.20;99.90;;;;;;5013322;28;20030;-63
2022/12/13 00:50:19;;;;;;;30.77;17.42;;;-4.20;99.90;;;;;;4993379;28;20042;-61
2022/12/13 00:53:05;;;;;;;34.45;18.27;;;-4.30;99.90;;;;;;4993909;28;20086;-62
2022/12/13 00:55:51;;;;;;;36.38;18.40;;;-4.30;99.90;;;;;;5004246;28;20048;-62
2022/12/13 00:58:38;;;;;;;34.15;17.83;;;-4.20;99.90;;;;;;5012341;28;20095;-61
2022/12/13 01:01:27;;;;;;;34.85;18.83;;;-4.20;99.90;;;;;;5012790;28;20030;-61
2022/12/13 01:04:13;;;;;;;37.90;18.85;;;-4.20;99.90;;;;;;5019730;28;20053;-60
2022/12/13 01:06:59;;;;;;;34.58;18.80;;;-4.30;99.90;;;;;;5017175;28;20018;-60
2022/12/13 01:09:45;;;;;;;35.75;17.92;;;-4.50;99.90;;;;;;4991404;28;20041;-61
2022/12/13 01:12:31;;;;;;;37.38;18.90;;;-4.70;99.90;;;;;;5004518;28;20108;-63
2022/12/13 01:15:17;;;;;;;37.05;19.70;;;-4.70;99.90;;;;;;5024908;28;20030;-62
2022/12/13 01:18:03;;;;;;;37.90;18.83;;;-4.80;99.90;;;;;;5030730;28;20037;-63
2022/12/13 01:21:02;;;;;;;36.80;18.70;;;-4.80;99.90;;;;;;5031465;28;20068;-62
2022/12/13 01:23:48;;;;;;;36.47;21.65;;;-4.80;99.90;;;;;;5032439;28;20032;-63
2022/12/13 01:26:34;;;;;;;34.03;18.70;;;-4.80;99.90;;;;;;5010003;28;20713;-63
2022/12/13 01:29:21;;;;;;;34.55;18.02;;;-4.80;99.90;;;;;;5031544;28;20103;-62
2022/12/13 01:32:07;;;;;;;32.78;18.55;;;-4.70;99.90;;;;;;5031928;28;20030;-63
2022/12/13 01:34:53;;;;;;;33.78;17.15;;;-4.60;99.90;;;;;;5031654;28;20510;-62
2022/12/13 01:37:39;;;;;;;30.90;16.52;;;-4.50;99.90;;;;;;5031492;28;20033;-62
2022/12/13 01:40:25;;;;;;;36.03;17.65;;;-4.60;99.90;;;;;;5031298;28;20033;-62
2022/12/13 01:43:13;;;;;;;36.95;18.58;;;-4.50;99.90;;;;;;5031430;28;20025;-60
2022/12/13 01:45:58;;;;;;;41.95;18.88;;;-4.60;99.90;;;;;;5031855;28;20524;-59
2022/12/13 01:49:16;;;;;;;36.22;17.83;;;-4.50;99.90;;;;;;5027587;28;20018;-61
2022/12/13 01:52:06;;;;;;;90.53;37.90;;;-4.40;99.90;;;;;;5014079;28;20707;-61
2022/12/13 01:54:55;;;;;;;48.10;23.52;;;-4.30;99.90;;;;;;5011947;28;20037;-63
2022/12/13 01:57:45;;;;;;;32.22;17.80;;;-4.20;99.90;;;;;;5011887;28;20513;-60
2022/12/13 02:00:33;;;;;;;36.90;17.58;;;-4.20;99.90;;;;;;5011332;28;20033;-62
2022/12/13 02:03:21;;;;;;;38.95;18.70;;;-4.30;99.90;;;;;;5011607;28;20026;-60
2022/12/13 02:06:27;;;;;;;35.08;17.52;;;-4.40;99.90;;;;;;5012375;28;20553;-58
2022/12/13 02:09:13;;;;;;;37.90;20.08;;;-4.50;99.90;;;;;;5011749;28;20113;-63
2022/12/13 02:11:59;;;;;;;34.70;18.08;;;-4.60;99.90;;;;;;5011583;28;20037;-62
2022/12/13 02:14:45;;;;;;;39.17;19.25;;;-4.70;99.90;;;;;;5012140;28;20030;-63
2022/12/13 02:18:12;;;;;;;36.78;18.90;;;-4.70;99.90;;;;;;5010910;28;20045;-63
2022/12/13 02:21:03;;;;;;;32.03;16.48;;;-4.70;99.90;;;;;;5010859;28;20511;-62
2022/12/13 02:24:19;;;;;;;32.67;17.10;;;-4.70;99.90;;;;;;5011498;28;20029;-58
2022/12/13 02:27:23;;;;;;;;;;;-4.70;99.90;;;;;;5011634;28;20021;-61
2022/12/13 02:30:25;;;;;;;34.75;17.58;;;-4.80;99.90;;;;;;5011233;28;19905;-60
2022/12/13 02:33:17;;;;;;;31.88;17.70;;;-4.80;99.90;;;;;;5011192;28;20062;-62
2022/12/13 02:36:11;;;;;;;33.13;17.48;;;-4.90;99.90;;;;;;5010591;28;20066;-62
2022/12/13 02:39:15;;;;;;;39.50;19.07;;;-5.00;99.90;;;;;;5011447;28;20026;-61
2022/12/13 02:42:15;;;;;;;33.13;17.00;;;-4.90;99.90;;;;;;5010262;28;20297;-60
2022/12/13 02:45:18;;;;;;;35.88;18.17;;;-5.00;99.90;;;;;;5010607;28;20659;-61
2022/12/13 02:48:07;;;;;;;31.92;17.42;;;-5.10;99.90;;;;;;5029914;28;20108;-61
2022/12/13 02:50:55;;;;;;;33.05;17.20;;;-5.10;99.90;;;;;;5031493;28;20021;-60
2022/12/13 02:53:43;;;;;;;30.70;16.58;;;-5.10;99.90;;;;;;5031247;28;20033;-62
2022/12/13 02:56:31;;;;;;;37.80;19.00;;;-5.10;99.90;;;;;;5032416;28;20546;-57
2022/12/13 02:59:17;;;;;;;32.88;17.10;;;-5.00;99.90;;;;;;5030397;28;20087;-62
2022/12/13 03:02:35;;;;;;;33.45;17.10;;;-5.10;99.90;;;;;;5028551;28;20030;-62
2022/12/13 03:09:06;;;;;;;31.27;16.88;;;-5.00;99.90;;;;;;5024315;28;20485;-61
2022/12/13 03:15:46;;;;;;;33.63;16.80;;;-5.30;99.90;;;;;;5010825;28;20026;-60
2022/12/13 03:18:33;;;;;;;35.95;18.15;;;-5.30;99.90;;;;;;5022693;28;20116;-58
2022/12/13 03:21:19;;;;;;;33.92;17.95;;;-5.30;99.90;;;;;;5029043;28;20029;-62
2022/12/13 03:24:05;;;;;;;30.73;16.65;;;-5.20;99.90;;;;;;5015398;28;20490;-63
2022/12/13 03:26:51;;;;;;;36.83;17.02;;;-5.20;99.90;;;;;;5030603;28;20080;-62
2022/12/13 03:29:38;;;;;;;29.35;16.52;;;-5.20;99.90;;;;;;5010574;28;20033;-63
2022/12/13 03:32:23;;;;;;;33.03;16.65;;;-5.30;99.90;;;;;;5013940;28;20037;-63
2022/12/13 03:35:09;;;;;;;34.42;17.75;;;-5.20;99.90;;;;;;5030498;28;20104;-62
2022/12/13 03:37:56;;;;;;;33.20;16.77;;;-5.20;99.90;;;;;;5016111;28;20497;-60
2022/12/13 03:40:43;;;;;;;35.58;17.67;;;-5.20;99.90;;;;;;5028385;28;20041;-62
2022/12/13 03:43:29;;;;;;;35.47;17.40;;;-5.20;99.90;;;;;;5029484;28;20025;-62
2022/12/13 03:46:15;;;;;;;33.28;17.48;;;-5.30;99.90;;;;;;5029466;28;20616;-64
2022/12/13 03:49:01;;;;;;;33.53;16.92;;;-5.30;99.90;;;;;;5029873;28;20041;-62
2022/12/13 03:51:47;;;;;;;32.47;17.63;;;-5.30;99.90;;;;;;5014394;28;20021;-63
2022/12/13 03:54:33;;;;;;;39.17;17.70;;;-5.40;99.90;;;;;;5009741;28;20121;-62
2022/12/13 03:57:18;;;;;;;31.13;16.67;;;-5.50;99.90;;;;;;5013644;28;20506;-63
2022/12/13 04:00:05;;;;;;;33.78;16.77;;;-5.50;99.90;;;;;;5027086;28;20030;-62
2022/12/13 04:02:51;;;;;;;31.77;16.98;;;-5.50;99.90;;;;;;5029613;28;20113;-60
2022/12/13 04:05:37;;;;;;;34.72;17.08;;;-5.50;99.90;;;;;;5015124;28;20026;-62
2022/12/13 04:08:23;;;;;;;36.95;18.45;;;-5.50;99.90;;;;;;5029530;28;20033;-62
2022/12/13 04:14:13;;;;;;;29.27;15.93;;;-5.50;99.90;;;;;;5021723;28;20080;-62
2022/12/13 04:16:59;;;;;;;31.13;17.08;;;-5.40;99.90;;;;;;5032553;28;20033;-62
2022/12/13 04:19:45;;;;;;;31.95;16.90;;;-5.50;99.90;;;;;;5032390;28;20030;-61
2022/12/13 04:22:31;;;;;;;31.25;17.48;;;-5.50;99.90;;;;;;5019490;28;20041;-62
2022/12/13 04:25:18;;;;;;;30.20;15.73;;;-5.60;99.90;;;;;;5018311;28;20034;-62
2022/12/13 04:28:05;;;;;;;30.80;16.55;;;-5.50;99.90;;;;;;5032086;28;20113;-61
2022/12/13 04:30:51;;;;;;;37.35;18.48;;;-5.50;99.90;;;;;;5032546;28;20514;-62
2022/12/13 04:33:37;;;;;;;35.72;17.50;;;-5.50;99.90;;;;;;5033142;28;20106;-61
2022/12/13 04:36:23;;;;;;;59.40;26.98;;;-5.40;99.90;;;;;;5032707;28;20087;-62
2022/12/13 04:39:09;;;;;;;42.85;20.90;;;-5.40;99.90;;;;;;5032330;28;20091;-61
2022/12/13 04:41:55;;;;;;;35.22;18.30;;;-5.40;99.90;;;;;;5032832;28;20030;-62
2022/12/13 04:44:40;;;;;;;35.45;17.02;;;-5.50;99.90;;;;;;5031807;28;20103;-61
2022/12/13 04:47:27;;;;;;;31.38;16.85;;;-5.60;99.90;;;;;;5032558;28;20036;-59
2022/12/13 04:50:12;;;;;;;32.35;16.65;;;-5.70;99.90;;;;;;5031663;28;20021;-60
2022/12/13 04:52:58;;;;;;;31.60;16.70;;;-5.70;99.90;;;;;;5032642;28;20592;-64
2022/12/13 04:55:44;;;;;;;34.05;17.83;;;-5.80;99.90;;;;;;5032237;28;20390;-62
2022/12/13 04:58:30;;;;;;;34.72;16.77;;;-5.70;99.90;;;;;;5031800;28;20537;-63
2022/12/13 05:01:17;;;;;;;38.50;19.27;;;-5.80;99.90;;;;;;5030687;28;20037;-61
2022/12/13 05:04:03;;;;;;;39.72;18.17;;;-5.70;99.90;;;;;;5031961;28;20115;-63
2022/12/13 05:06:48;;;;;;;37.50;17.95;;;-5.70;99.90;;;;;;5012612;28;20026;-63
2022/12/13 05:09:35;;;;;;;34.05;17.17;;;-5.60;99.90;;;;;;5014838;28;20022;-61
2022/12/13 05:12:21;;;;;;;35.78;17.10;;;-5.50;99.90;;;;;;5032266;28;20033;-63
2022/12/13 05:15:07;;;;;;;36.80;17.40;;;-5.50;99.90;;;;;;5031406;28;20029;-60
2022/12/13 05:17:53;;;;;;;32.10;16.52;;;-5.50;99.90;;;;;;5032648;28;20056;-63
2022/12/13 05:20:39;;;;;;;31.77;16.40;;;-5.40;99.90;;;;;;5031096;28;20037;-61
2022/12/13 05:23:25;;;;;;;29.42;16.23;;;-5.40;99.90;;;;;;5032918;28;20028;-63
2022/12/13 05:26:11;;;;;;;32.80;15.50;;;-5.40;99.90;;;;;;5019631;28;20115;-62
2022/12/13 05:28:57;;;;;;;30.30;15.70;;;-5.40;99.90;;;;;;5032383;28;20032;-59
2022/12/13 05:31:43;;;;;;;32.78;16.33;;;-5.40;99.90;;;;;;5033449;28;20091;-62
2022/12/13 05:34:29;;;;;;;30.17;17.02;;;-5.40;99.90;;;;;;5033599;28;20083;-62
2022/12/13 05:37:15;;;;;;;29.40;15.93;;;-5.50;99.90;;;;;;5033428;28;20030;-61
2022/12/13 05:40:01;;;;;;;31.85;17.08;;;-5.50;99.90;;;;;;5032046;28;20038;-60
2022/12/13 05:42:47;;;;;;;29.02;16.45;;;-5.60;99.90;;;;;;5032138;28;20018;-59
2022/12/13 05:45:33;;;;;;;36.80;17.25;;;-5.70;99.90;;;;;;5031534;28;20033;-62
2022/12/13 05:48:19;;;;;;;34.92;17.90;;;-5.70;99.90;;;;;;5030952;28;20032;-61
2022/12/13 05:51:05;;;;;;;33.72;16.90;;;-5.90;99.90;;;;;;5031060;28;20093;-60
2022/12/13 05:53:51;;;;;;;35.67;17.27;;;-5.90;99.90;;;;;;5031152;28;20029;-62
2022/12/13 05:56:37;;;;;;;35.88;18.17;;;-5.80;99.90;;;;;;5028474;28;20021;-61
2022/12/13 05:59:23;;;;;;;35.60;18.38;;;-5.80;99.90;;;;;;5051165;28;20438;-62
2022/12/13 06:02:08;;;;;;;36.78;19.02;;;-5.80;99.90;;;;;;5033052;28;20057;-58
2022/12/13 06:04:54;;;;;;;32.30;17.15;;;-5.80;99.90;;;;;;5030200;28;20029;-57
2022/12/13 06:07:40;;;;;;;39.15;20.10;;;-5.80;99.90;;;;;;5027140;28;20405;-64
2022/12/13 06:10:27;;;;;;;33.92;20.13;;;-5.90;99.90;;;;;;5032652;28;20401;-61
2022/12/13 06:13:13;;;;;;;33.58;18.27;;;-5.90;99.90;;;;;;5052498;28;20028;-60
2022/12/13 06:16:04;;;;;;;31.98;17.90;;;-5.90;99.90;;;;;;5044245;28;20041;-59
2022/12/13 06:18:52;;;;;;;36.25;18.77;;;-5.90;99.90;;;;;;5030957;28;20021;-63
2022/12/13 06:21:38;;;;;;;36.30;17.55;;;-5.90;99.90;;;;;;4997285;28;20038;-62
2022/12/13 06:24:26;;;;;;;32.20;16.67;;;-5.70;99.90;;;;;;5014367;28;20029;-58
2022/12/13 06:27:12;;;;;;;33.58;17.35;;;-5.70;99.90;;;;;;5015911;28;20037;-63
2022/12/13 06:29:58;;;;;;;32.75;16.80;;;-5.70;99.90;;;;;;5029982;28;20525;-64
2022/12/13 06:32:48;;;;;;;30.92;17.25;;;-5.60;99.90;;;;;;5030776;28;20059;-63
2022/12/13 06:35:34;;;;;;;39.35;21.02;;;-5.60;99.90;;;;;;5030204;28;20125;-61
2022/12/13 06:38:20;;;;;;;33.47;18.15;;;-5.70;99.90;;;;;;5015980;28;20509;-60
2022/12/13 06:41:14;;;;;;;37.40;19.15;;;-5.80;99.90;;;;;;5015018;28;20048;-58
2022/12/13 06:44:00;;;;;;;38.83;19.65;;;-5.80;99.90;;;;;;5030650;28;20052;-62
2022/12/13 06:46:46;;;;;;;33.40;19.10;;;-5.90;99.90;;;;;;5003007;28;20064;-62
2022/12/13 06:49:32;;;;;;;41.00;20.23;;;-6.00;99.90;;;;;;5029689;28;20037;-62
2022/12/13 06:52:20;;;;;;;31.98;18.30;;;-6.00;99.90;;;;;;5028527;28;20038;-59
2022/12/13 06:55:07;;;;;;;37.95;18.10;;;-6.10;99.90;;;;;;5029776;28;20026;-60
2022/12/13 06:57:52;;;;;;;37.47;19.42;;;-6.20;99.90;;;;;;5031601;28;20079;-62
2022/12/13 07:00:38;;;;;;;38.35;20.48;;;-6.20;99.90;;;;;;5029210;28;20029;-61
2022/12/13 07:03:24;;;;;;;37.38;19.52;;;-6.20;99.90;;;;;;5030518;28;20034;-61
2022/12/13 07:06:21;;;;;;;35.92;19.02;;;-6.20;99.90;;;;;;5016185;28;20061;-59
2022/12/13 07:09:07;;;;;;;38.13;19.73;;;-6.30;99.90;;;;;;5030582;28;20036;-64
2022/12/13 07:11:53;;;;;;;40.70;21.60;;;-6.30;99.90;;;;;;5014424;28;20057;-63
2022/12/13 07:14:39;;;;;;;44.17;21.75;;;-6.30;99.90;;;;;;5030528;28;20029;-61
2022/12/13 07:17:25;;;;;;;39.00;19.17;;;-6.20;99.90;;;;;;4996986;28;20033;-63
2022/12/13 07:20:12;;;;;;;38.90;19.33;;;-6.20;99.90;;;;;;4997390;28;20034;-62
2022/12/13 07:22:58;;;;;;;38.50;17.20;;;-6.10;99.90;;;;;;5001744;28;20025;-64
2022/12/13 07:25:54;;;;;;;47.45;21.33;;;-6.00;99.90;;;;;;5016625;28;20017;-63
2022/12/13 07:28:40;;;;;;;61.60;23.45;;;-6.00;99.90;;;;;;5015092;28;20513;-64
2022/12/13 07:31:26;;;;;;;56.65;22.35;;;-6.00;99.90;;;;;;5029110;28;20041;-62
2022/12/13 07:34:12;;;;;;;39.15;20.80;;;-6.10;99.90;;;;;;5026152;28;20124;-67
2022/12/13 07:36:58;;;;;;;37.47;17.60;;;-6.10;99.90;;;;;;5041349;28;20071;-62
2022/12/13 07:39:44;;;;;;;36.13;17.77;;;-6.10;99.90;;;;;;5016372;28;20017;-60
2022/12/13 07:42:30;;;;;;;39.45;17.95;;;-6.10;99.90;;;;;;5029755;28;20090;-64
2022/12/13 07:45:16;;;;;;;38.92;20.10;;;-6.10;99.90;;;;;;5013862;28;20030;-63
2022/12/13 07:48:11;;;;;;;38.92;18.27;;;-6.10;99.90;;;;;;5010396;28;20069;-65
2022/12/13 07:51:03;;;;;;;53.08;22.88;;;-6.10;99.90;;;;;;5010525;28;20439;-61
2022/12/13 07:53:49;;;;;;;50.92;23.15;;;-6.00;99.90;;;;;;5010857;28;20502;-63
2022/12/13 07:56:35;;;;;;;41.70;21.60;;;-5.90;99.90;;;;;;5009683;28;20033;-64
2022/12/13 07:59:21;;;;;;;42.13;20.35;;;-5.90;99.90;;;;;;5009612;28;20410;-63
2022/12/13 08:02:12;;;;;;;49.50;20.85;;;-5.90;99.90;;;;;;5025751;28;20465;-63
2022/12/13 08:04:57;;;;;;;35.63;19.35;;;-5.90;99.90;;;;;;5029119;28;20101;-63
2022/12/13 08:07:43;;;;;;;36.63;19.75;;;-5.90;99.90;;;;;;5029415;28;20037;-65
2022/12/13 08:10:30;;;;;;;47.70;20.42;;;-5.90;99.90;;;;;;5028305;28;20032;-63
2022/12/13 08:13:15;;;;;;;35.30;18.70;;;-5.90;99.90;;;;;;5030014;28;20049;-62
2022/12/13 08:16:07;;;;;;;39.60;19.02;;;-5.90;99.90;;;;;;5030954;28;20022;-62
2022/12/13 08:18:53;;;;;;;34.53;19.52;;;-5.80;99.90;;;;;;5030012;28;20478;-60
2022/12/13 08:21:40;;;;;;;40.88;22.02;;;-5.80;99.90;;;;;;5041278;28;20033;-61
2022/12/13 08:24:27;;;;;;;41.55;22.38;;;-5.70;99.90;;;;;;5043503;28;20460;-62
2022/12/13 08:27:14;;;;;;;44.30;23.48;;;-5.70;99.90;;;;;;5018102;28;20052;-63
2022/12/13 08:29:59;;;;;;;37.47;20.77;;;-5.70;99.90;;;;;;5027878;28;20049;-60
2022/12/13 08:32:48;;;;;;;43.05;21.27;;;-5.70;99.90;;;;;;5031097;28;20037;-59
2022/12/13 08:35:34;;;;;;;43.30;23.40;;;-5.60;99.90;;;;;;5030640;28;20108;-62
2022/12/13 08:38:20;;;;;;;43.28;22.42;;;-5.60;99.90;;;;;;5029184;28;20053;-64
2022/12/13 08:41:07;;;;;;;37.78;20.33;;;-5.60;99.90;;;;;;5028705;28;20057;-62
2022/12/13 08:43:53;;;;;;;35.15;18.88;;;-5.70;99.90;;;;;;5029271;28;20502;-61
2022/12/13 08:46:39;;;;;;;38.25;20.00;;;-5.80;99.90;;;;;;5028403;28;20056;-61
2022/12/13 08:49:25;;;;;;;34.15;17.75;;;-5.80;99.90;;;;;;4987997;28;20033;-62
2022/12/13 08:52:11;;;;;;;38.00;18.92;;;-5.60;99.90;;;;;;5029787;28;20033;-63
2022/12/13 08:54:57;;;;;;;37.17;19.38;;;-5.40;99.90;;;;;;5028487;28;20087;-62
2022/12/13 08:57:44;;;;;;;46.53;22.73;;;-5.20;99.90;;;;;;4998398;28;20029;-65
2022/12/13 09:00:29;;;;;;;32.28;18.52;;;-5.10;99.90;;;;;;5045711;28;20048;-63
2022/12/13 09:03:15;;;;;;;40.65;20.05;;;-5.00;99.90;;;;;;5030291;28;20032;-59
2022/12/13 09:06:19;;;;;;;37.88;19.45;;;-5.00;99.90;;;;;;5031839;28;20033;-63
2022/12/13 09:09:05;;;;;;;36.72;19.50;;;-5.00;99.90;;;;;;5015752;28;20034;-63
2022/12/13 09:11:51;;;;;;;38.97;18.63;;;-4.90;99.90;;;;;;5032731;28;20065;-59
2022/12/13 09:14:37;;;;;;;38.85;19.20;;;-4.90;99.90;;;;;;5015793;28;20451;-63
2022/12/13 09:17:23;;;;;;;40.03;19.48;;;-4.90;99.90;;;;;;5025847;28;20021;-62
2022/12/13 09:20:10;;;;;;;39.78;20.23;;;-5.00;99.90;;;;;;5031217;28;20018;-64
2022/12/13 09:22:56;;;;;;;41.20;22.23;;;-5.00;99.90;;;;;;5017045;28;20037;-59
2022/12/13 09:25:42;;;;;;;38.38;20.52;;;-4.90;99.90;;;;;;5000430;28;20585;-62
2022/12/13 09:28:28;;;;;;;36.58;18.63;;;-4.90;99.90;;;;;;5032167;28;20386;-63
2022/12/13 09:31:18;;;;;;;31.33;17.55;;;-4.90;99.90;;;;;;5032807;28;20041;-64
2022/12/13 09:34:04;;;;;;;37.55;18.83;;;-5.00;99.90;;;;;;5028689;28;20013;-62
2022/12/13 09:36:49;;;;;;;33.97;19.88;;;-5.30;99.90;;;;;;5046512;28;20375;-61
2022/12/13 09:39:35;;;;;;;35.72;18.35;;;-5.30;99.90;;;;;;5053461;28;20031;-58
2022/12/13 09:42:24;;;;;;;39.22;20.08;;;-5.50;99.90;;;;;;5046261;28;20056;-64
2022/12/13 09:45:12;;;;;;;38.10;21.50;;;-5.50;99.90;;;;;;5036040;28;20025;-63
2022/12/13 09:47:58;;;;;;;36.30;19.38;;;-5.50;99.90;;;;;;5017319;28;20025;-63
2022/12/13 09:50:45;;;;;;;36.67;17.67;;;-5.50;99.90;;;;;;5032439;28;20026;-65
2022/12/13 09:53:31;;;;;;;40.17;19.80;;;-5.50;99.90;;;;;;5020721;28;20025;-59
2022/12/13 09:56:22;;;;;;;40.35;20.50;;;-5.50;99.90;;;;;;5015017;28;20671;-60
2022/12/13 09:59:12;;;;;;;39.45;20.10;;;-5.50;99.90;;;;;;5033395;28;20026;-60
2022/12/13 10:02:14;;;;;;;37.63;20.58;;;-5.40;99.90;;;;;;5029933;28;20030;-64
2022/12/13 10:05:16;;;;;;;35.35;18.77;;;-5.50;99.90;;;;;;5028382;28;20105;-65
2022/12/13 10:08:21;;;;;;;39.90;20.92;;;-5.30;99.90;;;;;;5030127;28;20025;-62
2022/12/13 10:11:14;;;;;;;38.33;19.13;;;-5.20;99.90;;;;;;5026846;28;20049;-61
2022/12/13 10:14:16;;;;;;;37.72;20.50;;;-5.10;99.90;;;;;;5031575;28;20033;-61
2022/12/13 10:17:05;;;;;;;37.13;20.20;;;-5.10;99.90;;;;;;5033312;28;20067;-58
2022/12/13 10:19:51;;;;;;;38.90;20.38;;;-5.00;99.90;;;;;;5041638;28;20018;-59
2022/12/13 10:22:37;;;;;;;38.80;21.40;;;-4.80;99.90;;;;;;5014448;28;20052;-64
2022/12/13 10:25:45;;;;;;;41.55;20.73;;;-4.70;99.90;;;;;;5016819;28;20064;-61
2022/12/13 10:28:32;;;;;;;39.42;19.55;;;-4.80;99.90;;;;;;5049360;28;20493;-62
2022/12/13 10:31:19;;;;;;;41.70;21.10;;;-4.70;99.90;;;;;;5049862;28;20037;-63
2022/12/13 10:34:14;;;;;;;42.72;20.80;;;-4.80;99.90;;;;;;5024975;28;20022;-61
2022/12/13 10:37:25;;;;;;;35.83;20.15;;;-4.80;99.90;;;;;;5032912;28;20034;-59
2022/12/13 10:40:26;;;;;;;37.22;20.25;;;-4.80;99.90;;;;;;5030833;28;20022;-60
2022/12/13 10:43:14;;;;;;;40.90;21.15;;;-4.90;99.90;;;;;;5033168;28;20098;-61
2022/12/13 10:46:01;;;;;;;38.90;21.02;;;-4.90;99.90;;;;;;5031294;28;20641;-63
2022/12/13 10:48:50;;;;;;;48.13;22.10;;;-4.80;99.90;;;;;;5031548;28;20072;-61
2022/12/13 10:51:38;;;;;;;41.28;21.52;;;-4.80;99.90;;;;;;5027264;28;20568;-60
2022/12/13 10:54:36;;;;;;;39.85;21.05;;;-4.70;99.90;;;;;;5033438;28;20068;-57
2022/12/13 10:57:23;;;;;;;39.00;22.27;;;-4.70;99.90;;;;;;5034075;28;20021;-60
2022/12/13 11:00:32;;;;;;;47.55;23.70;;;-4.80;99.90;;;;;;5033677;28;20022;-58
2022/12/13 11:03:29;;;;;;;41.25;22.45;;;-4.70;99.90;;;;;;5034328;28;20037;-60
2022/12/13 11:06:19;;;;;;;44.15;22.13;;;-4.60;99.90;;;;;;5018568;28;20030;-60
2022/12/13 11:09:14;;;;;;;42.55;22.55;;;-4.50;99.90;;;;;;5034016;28;20029;-61
2022/12/13 11:12:02;;;;;;;41.55;21.38;;;-4.30;99.90;;;;;;5030988;28;20514;-60
2022/12/13 11:14:54;;;;;;;38.65;21.45;;;-4.30;99.90;;;;;;5027743;28;20044;-60
2022/12/13 11:17:50;;;;;;;39.78;23.08;;;-4.20;99.90;;;;;;5032135;28;20102;-62
2022/12/13 11:20:46;;;;;;;42.40;22.10;;;-4.20;99.90;;;;;;5031092;28;20037;-62
2022/12/13 11:23:38;;;;;;;35.13;20.42;;;-3.90;99.90;;;;;;5031136;28;20040;-61
2022/12/13 11:26:25;;;;;;;39.83;22.05;;;-3.80;99.90;;;;;;5032512;28;20501;-61
2022/12/13 11:29:36;;;;;;;47.70;22.45;;;-3.80;99.90;;;;;;5031927;28;20505;-59
2022/12/13 11:32:21;;;;;;;37.13;20.58;;;-3.90;99.90;;;;;;5031160;28;20541;-60
2022/12/13 11:35:14;;;;;;;34.40;19.90;;;-3.60;99.90;;;;;;5031160;28;20022;-63
2022/12/13 11:38:14;;;;;;;39.67;21.10;;;-3.50;99.90;;;;;;5030824;28;20025;-59
2022/12/13 11:41:25;;;;;;;38.42;21.98;;;-3.60;99.90;;;;;;5026847;28;20030;-60
2022/12/13 11:44:25;;;;;;;38.47;22.02;;;-3.60;99.90;;;;;;5015561;28;20030;-62
2022/12/13 11:47:26;;;;;;;41.88;22.38;;;-3.60;99.90;;;;;;5030343;28;20495;-58
2022/12/13 11:50:18;;;;;;;44.28;22.90;;;-3.50;99.90;;;;;;5015106;28;20037;-65
2022/12/13 11:53:45;;;;;;;39.03;20.58;;;-3.60;99.90;;;;;;5029038;28;20113;-60
2022/12/13 11:56:38;;;;;;;39.40;21.13;;;-3.70;99.90;;;;;;5033147;28;20560;-67
2022/12/13 11:59:41;;;;;;;38.10;20.58;;;-3.70;99.90;;;;;;4990360;28;20042;-62
2022/12/13 12:02:37;;;;;;;38.35;21.67;;;-3.60;99.90;;;;;;5029524;28;20032;-62
2022/12/13 12:05:35;;;;;;;41.42;21.02;;;-3.70;99.90;;;;;;5013704;28;20033;-69
2022/12/13 12:08:43;;;;;;;37.10;20.90;;;-3.50;99.90;;;;;;5028820;28;20061;-67
2022/12/13 12:12:01;;;;;;;40.03;22.15;;;-3.40;99.90;;;;;;5028462;28;20024;-63
2022/12/13 12:14:51;;;;;;;36.15;20.55;;;-3.40;99.90;;;;;;5010933;28;20034;-65
2022/12/13 12:17:37;;;;;;;52.85;22.75;;;-3.30;99.90;;;;;;5027480;28;20111;-63
2022/12/13 12:20:42;;;;;;;38.85;21.73;;;-3.30;99.90;;;;;;5028923;28;20022;-61
2022/12/13 12:24:10;;;;;;;38.67;20.48;;;-3.10;99.90;;;;;;5029335;28;20494;-63
2022/12/13 12:27:21;;;;;;;40.45;21.50;;;-3.20;99.90;;;;;;4996299;28;20049;-64
2022/12/13 12:30:32;;;;;;;37.60;22.70;;;-3.30;99.90;;;;;;5019739;28;20087;-63
2022/12/13 12:33:39;;;;;;;39.78;22.10;;;-3.20;99.90;;;;;;5028515;28;20040;-58
2022/12/13 12:36:34;;;;;;;35.45;20.80;;;-3.10;99.90;;;;;;5031166;28;20038;-61
2022/12/13 12:39:22;;;;;;;37.63;21.77;;;-2.80;99.90;;;;;;5033397;28;20029;-58
2022/12/13 12:42:33;;;;;;;41.08;22.25;;;-2.70;99.90;;;;;;5032763;28;20563;-60
2022/12/13 12:45:27;;;;;;;40.47;22.33;;;-2.60;99.90;;;;;;5033193;28;20379;-61
2022/12/13 12:48:16;;;;;;;38.55;22.17;;;-2.40;99.90;;;;;;5032285;28;20502;-60
2022/12/13 12:51:14;;;;;;;36.38;22.15;;;-2.00;99.90;;;;;;5031637;28;20084;-61
2022/12/13 12:54:18;;;;;;;40.47;22.90;;;-2.00;99.90;;;;;;5032337;28;20018;-60
2022/12/13 12:57:18;;;;;;;36.67;21.02;;;-2.00;99.90;;;;;;5033506;28;20021;-62
2022/12/13 13:00:10;;;;;;;37.17;21.55;;;-1.80;99.90;;;;;;5035219;28;20152;-59
2022/12/13 13:03:18;;;;;;;36.10;20.90;;;-1.70;99.90;;;;;;5031064;28;20029;-60
2022/12/13 13:06:12;;;;;;;35.80;21.35;;;-1.60;99.90;;;;;;5032488;28;20563;-62
2022/12/13 13:09:03;;;;;;;38.65;22.15;;;-1.50;99.90;;;;;;5032099;28;20029;-60
2022/12/13 13:11:49;;;;;;;38.92;20.92;;;-1.50;99.90;;;;;;5031544;28;20159;-60
2022/12/13 13:14:37;;;;;;;33.53;21.25;;;-1.40;99.90;;;;;;5031297;28;20478;-56
2022/12/13 13:17:23;;;;;;;38.75;20.45;;;-1.50;99.90;;;;;;5032120;28;20099;-60
2022/12/13 13:20:17;;;;;;;31.05;18.90;;;-1.60;99.90;;;;;;5031121;28;20022;-53
2022/12/13 13:23:13;;;;;;;33.65;20.27;;;-1.60;99.90;;;;;;5016554;28;20032;-61
2022/12/13 13:25:59;;;;;;;35.83;20.65;;;-1.60;99.90;;;;;;5031727;28;20030;-58
2022/12/13 13:28:46;;;;;;;33.17;20.40;;;-1.50;99.90;;;;;;5031966;28;20065;-60
2022/12/13 13:31:59;;;;;;;32.47;20.23;;;-1.40;99.90;;;;;;5016742;28;20105;-62
2022/12/13 13:34:47;;;;;;;33.55;21.08;;;-1.10;99.90;;;;;;5041671;28;20021;-63
2022/12/13 13:37:46;;;;;;;33.13;20.50;;;-1.10;99.90;;;;;;5031689;28;20022;-63
2022/12/13 13:40:37;;;;;;;34.33;20.88;;;-1.10;99.90;;;;;;5029848;28;20022;-62
2022/12/13 13:43:29;;;;;;;32.03;20.00;;;-1.00;99.90;;;;;;5015991;28;20029;-62
2022/12/13 13:46:15;;;;;;;34.50;19.80;;;-0.90;99.90;;;;;;5030425;28;20409;-60
2022/12/13 13:49:08;;;;;;;36.08;20.83;;;-0.90;99.90;;;;;;5029662;28;20410;-59
2022/12/13 13:52:10;;;;;;;31.95;20.85;;;-0.90;99.90;;;;;;5021552;28;20061;-59
2022/12/13 13:55:29;;;;;;;35.80;21.40;;;-0.50;99.90;;;;;;5031176;28;20030;-60
2022/12/13 13:58:37;;;;;;;36.20;21.23;;;0.20;99.90;;;;;;5029184;28;20113;-59
2022/12/13 14:01:47;;;;;;;31.00;20.50;;;1.10;99.70;;;;;;5030256;28;20021;-59
2022/12/13 14:05:10;;;;;;;98.80;49.70;;;2.00;98.60;;;;;;5031563;28;20022;-59
2022/12/13 14:08:08;;;;;;;40.75;25.30;;;2.90;97.00;;;;;;5031793;28;20560;-60
2022/12/13 14:11:29;;;;;;;34.42;22.42;;;3.70;94.70;;;;;;5030741;28;20137;-57
2022/12/13 14:14:53;;;;;;;34.03;21.80;;;4.10;93.40;;;;;;5014459;28;20052;-59
2022/12/13 14:18:11;;;;;;;31.88;20.88;;;4.30;91.60;;;;;;5031922;28;20555;-58
2022/12/13 14:21:00;;;;;;;29.30;20.45;;;4.30;92.10;;;;;;5030161;28;20029;-59
2022/12/13 14:24:34;;;;;;;30.02;21.25;;;4.50;91.50;;;;;;5021309;28;20029;-60
2022/12/13 14:27:25;;;;;;;32.00;20.42;;;4.30;90.60;;;;;;5030911;28;20127;-58
2022/12/13 14:30:20;;;;;;;33.05;22.10;;;3.30;90.70;;;;;;5031131;28;20466;-58
2022/12/13 14:33:19;;;;;;;33.45;22.63;;;2.20;91.40;;;;;;5031824;28;20068;-59
2022/12/13 14:36:14;;;;;;;31.00;22.05;;;1.00;93.00;;;;;;5016995;28;20030;-59
2022/12/13 14:39:11;;;;;;;33.20;23.13;;;0.20;94.60;;;;;;5032621;28;20033;-59